createdAt,value
2023-05-17T00:02:00.038Z,75.40
2023-05-17T00:04:58.044Z,75.50
2023-05-17T00:07:56.011Z,75.40
2023-05-17T00:10:54.032Z,75.20
2023-05-17T00:13:52.045Z,74.70
2023-05-17T00:16:50.080Z,74.20
2023-05-17T00:19:48.049Z,73.60
2023-05-17T00:22:47.981Z,73.30
2023-05-17T00:25:45.828Z,72.90
2023-05-17T00:28:43.823Z,72.80
2023-05-17T00:31:41.797Z,72.20
2023-05-17T00:34:39.859Z,72.30
2023-05-17T00:37:37.758Z,71.70
2023-05-17T00:40:35.706Z,71.40
2023-05-17T00:43:33.628Z,71.20
2023-05-17T00:46:31.610Z,71.40
2023-05-17T00:49:29.587Z,71.00
2023-05-17T00:52:28.090Z,70.70
2023-05-17T00:55:26.136Z,70.90
2023-05-17T00:58:25.003Z,70.90
2023-05-17T01:01:22.845Z,71.00
2023-05-17T01:04:21.129Z,70.80
2023-05-17T01:07:19.273Z,70.80
2023-05-17T01:10:17.453Z,70.30
2023-05-17T01:13:36.844Z,70.50
2023-05-17T01:16:36.950Z,70.30
2023-05-17T01:20:01.095Z,70.40
2023-05-17T01:23:17.499Z,70.10
2023-05-17T01:26:18.957Z,69.60
2023-05-17T01:29:18.124Z,69.20
2023-05-17T01:32:17.047Z,68.80
2023-05-17T01:35:15.642Z,68.80
2023-05-17T01:38:13.654Z,68.20
2023-05-17T01:41:17.653Z,68.20
2023-05-17T01:44:27.115Z,69.10
2023-05-17T01:47:49.318Z,68.70
2023-05-17T01:50:52.993Z,67.80
2023-05-17T01:54:01.135Z,68.20
2023-05-17T01:57:00.118Z,67.50
2023-05-17T02:00:03.097Z,67.70
2023-05-17T02:03:01.154Z,68.60
2023-05-17T02:05:59.213Z,67.80
2023-05-17T02:08:59.230Z,65.10
2023-05-17T02:11:57.731Z,63.10
2023-05-17T02:14:55.808Z,63.20
2023-05-17T02:17:54.162Z,62.70
2023-05-17T02:20:52.149Z,61.10
2023-05-17T02:23:50.133Z,61.50
2023-05-17T02:26:47.949Z,61.50
2023-05-17T02:29:45.892Z,61.90
2023-05-17T02:32:44.152Z,61.70
2023-05-17T02:35:42.154Z,63.00
2023-05-17T02:38:40.007Z,62.10
2023-05-17T02:41:37.961Z,62.60
2023-05-17T02:44:35.929Z,62.30
2023-05-17T02:47:34.018Z,62.20
2023-05-17T02:50:32.072Z,61.80
2023-05-17T02:53:30.080Z,62.10
2023-05-17T02:56:28.052Z,61.20
2023-05-17T02:59:26.042Z,61.90
2023-05-17T03:02:23.976Z,62.50
2023-05-17T03:05:21.967Z,63.50
2023-05-17T03:08:19.849Z,63.20
2023-05-17T03:11:17.904Z,63.40
2023-05-17T03:14:15.972Z,63.30
2023-05-17T03:17:13.956Z,62.60
2023-05-17T03:20:12.299Z,63.70
2023-05-17T03:23:10.264Z,64.30
2023-05-17T03:26:09.762Z,63.40
2023-05-17T03:29:07.729Z,62.90
2023-05-17T03:32:06.005Z,62.80
2023-05-17T03:35:04.077Z,62.90
2023-05-17T03:38:02.005Z,61.70
2023-05-17T03:41:00.150Z,62.10
2023-05-17T03:43:58.040Z,61.90
2023-05-17T03:46:56.147Z,62.60
2023-05-17T03:49:53.965Z,60.70
2023-05-17T03:52:51.934Z,60.60
2023-05-17T03:55:49.825Z,60.50
2023-05-17T03:58:49.325Z,60.10
2023-05-17T04:01:47.224Z,60.30
2023-05-17T04:04:52.133Z,60.60
2023-05-17T04:07:50.093Z,61.80
2023-05-17T04:10:48.060Z,61.30
2023-05-17T04:13:46.119Z,61.60
2023-05-17T04:16:44.143Z,62.50
2023-05-17T04:19:42.014Z,63.30
2023-05-17T04:22:40.122Z,64.80
2023-05-17T04:25:38.251Z,65.80
2023-05-17T04:28:36.457Z,66.50
2023-05-17T04:31:34.291Z,66.80
2023-05-17T04:34:32.761Z,64.70
2023-05-17T04:37:30.612Z,64.70
2023-05-17T04:40:29.580Z,63.70
2023-05-17T04:43:27.770Z,62.10
2023-05-17T04:46:25.851Z,62.50
2023-05-17T04:49:25.857Z,61.00
2023-05-17T04:52:24.004Z,59.50
2023-05-17T04:55:21.911Z,59.00
2023-05-17T04:58:20.652Z,58.50
2023-05-17T05:01:19.025Z,58.50
2023-05-17T05:04:17.570Z,58.10
2023-05-17T05:07:15.583Z,58.80
2023-05-17T05:10:13.654Z,58.60
2023-05-17T05:13:11.795Z,58.70
2023-05-17T05:16:10.208Z,59.10
2023-05-17T05:19:10.412Z,60.00
2023-05-17T05:22:08.576Z,60.40
2023-05-17T05:25:07.063Z,60.20
2023-05-17T05:28:05.356Z,59.20
2023-05-17T05:31:03.219Z,60.20
2023-05-17T05:34:02.121Z,60.30
2023-05-17T05:37:00.315Z,60.40
2023-05-17T05:39:58.456Z,60.20
2023-05-17T05:42:56.970Z,60.20
2023-05-17T05:45:54.973Z,59.10
2023-05-17T05:48:53.213Z,59.40
2023-05-17T05:51:51.300Z,58.10
2023-05-17T05:54:49.224Z,58.80
2023-05-17T05:57:47.204Z,57.50
2023-05-17T06:00:45.313Z,57.30
2023-05-17T06:03:43.370Z,56.80
2023-05-17T06:06:42.091Z,55.70
2023-05-17T06:09:40.664Z,55.90
2023-05-17T06:12:38.515Z,55.40
2023-05-17T06:15:37.026Z,55.30
2023-05-17T06:18:35.276Z,55.60
2023-05-17T06:21:33.481Z,57.00
2023-05-17T06:24:31.379Z,57.40
2023-05-17T06:27:29.937Z,55.30
2023-05-17T06:30:28.302Z,56.70
2023-05-17T06:33:26.651Z,57.10
2023-05-17T06:36:25.504Z,56.00
2023-05-17T06:39:23.602Z,55.90
2023-05-17T06:42:21.450Z,56.20
2023-05-17T06:45:19.569Z,55.30
2023-05-17T06:48:17.706Z,57.80
2023-05-17T06:51:16.503Z,55.70
2023-05-17T06:54:14.951Z,55.30
2023-05-17T06:57:13.133Z,56.50
2023-05-17T07:00:11.729Z,56.50
2023-05-17T07:03:09.822Z,56.20
2023-05-17T07:06:08.939Z,56.20
2023-05-17T07:09:07.779Z,55.90
2023-05-17T07:12:06.704Z,55.80
2023-05-17T07:15:04.912Z,55.70
2023-05-17T07:18:02.949Z,55.00
2023-05-17T07:21:01.219Z,54.90
2023-05-17T07:23:59.159Z,54.40
2023-05-17T07:27:00.550Z,53.10
2023-05-17T07:29:59.039Z,53.60
2023-05-17T07:32:57.030Z,53.80
2023-05-17T07:35:55.374Z,51.60
2023-05-17T07:38:53.315Z,52.80
2023-05-17T07:41:51.328Z,52.00
2023-05-17T07:44:50.430Z,52.30
2023-05-17T07:47:49.184Z,51.90
2023-05-17T07:50:47.410Z,51.90
2023-05-17T07:53:46.547Z,52.60
2023-05-17T07:56:44.364Z,52.60
2023-05-17T07:59:42.522Z,52.40
2023-05-17T08:02:41.626Z,52.00
2023-05-17T08:05:39.715Z,49.90
2023-05-17T08:08:37.572Z,49.70
2023-05-17T08:11:35.670Z,51.30
2023-05-17T08:14:33.556Z,51.50
2023-05-17T08:17:31.580Z,51.20
2023-05-17T08:20:29.445Z,51.70
2023-05-17T08:23:27.403Z,51.70
2023-05-17T08:26:25.281Z,51.20
2023-05-17T08:29:23.347Z,50.90
2023-05-17T08:32:21.770Z,51.60
2023-05-17T08:35:19.862Z,50.90
2023-05-17T08:38:19.303Z,50.70
2023-05-17T08:41:18.963Z,47.30
2023-05-17T08:44:18.208Z,50.30
2023-05-17T08:47:26.671Z,50.20
2023-05-17T08:50:25.751Z,50.80
2023-05-17T08:53:24.974Z,50.50
2023-05-17T08:56:24.586Z,52.00
2023-05-17T08:59:23.750Z,49.30
2023-05-17T09:02:23.100Z,50.20
2023-05-17T09:05:21.241Z,49.90
2023-05-17T09:08:19.803Z,51.10
2023-05-17T09:11:35.055Z,49.20
2023-05-17T09:14:36.532Z,47.60
2023-05-17T09:17:34.992Z,48.00
2023-05-17T09:20:37.127Z,49.70
2023-05-17T09:23:35.248Z,50.40
2023-05-17T09:26:45.151Z,50.80
2023-05-17T09:29:45.115Z,48.80
2023-05-17T09:35:48.206Z,48.40
2023-05-17T09:38:55.046Z,46.90
2023-05-17T09:41:58.164Z,48.10
2023-05-17T09:44:59.109Z,48.50
2023-05-17T09:47:57.251Z,48.70
2023-05-17T09:50:55.373Z,49.70
2023-05-17T09:53:56.032Z,47.70
2023-05-17T09:57:00.203Z,47.40
2023-05-17T09:59:59.002Z,47.70
2023-05-17T10:02:57.448Z,46.90
2023-05-17T10:05:55.682Z,47.60
2023-05-17T10:08:57.813Z,45.70
2023-05-17T10:11:58.808Z,46.00
2023-05-17T10:14:57.915Z,47.60
2023-05-17T10:17:56.300Z,46.70
2023-05-17T10:20:54.849Z,46.10
2023-05-17T10:23:55.024Z,50.30
2023-05-17T10:26:53.202Z,46.60
2023-05-17T10:29:52.905Z,46.30
2023-05-17T10:32:52.244Z,45.50
2023-05-17T10:35:52.067Z,45.80
2023-05-17T10:38:50.510Z,45.80
2023-05-17T10:41:55.733Z,45.20
2023-05-17T10:45:02.400Z,45.60
2023-05-17T10:48:06.647Z,45.80
2023-05-17T10:51:12.664Z,45.00
2023-05-17T10:54:12.676Z,45.30
2023-05-17T10:57:19.232Z,45.20
2023-05-17T11:00:22.323Z,45.60
2023-05-17T11:03:30.718Z,45.60
2023-05-17T11:06:37.729Z,45.60
2023-05-17T11:09:35.633Z,44.80
2023-05-17T11:12:36.564Z,45.30
2023-05-17T11:15:35.556Z,44.60
2023-05-17T11:18:53.270Z,44.70
2023-05-17T11:21:51.461Z,44.40
2023-05-17T11:24:54.660Z,44.70
2023-05-17T11:27:53.256Z,44.60
2023-05-17T11:30:54.544Z,46.40
2023-05-17T11:33:55.480Z,46.60
2023-05-17T11:36:55.864Z,46.20
2023-05-17T11:40:08.634Z,45.20
2023-05-17T11:43:22.352Z,44.80
2023-05-17T11:46:25.310Z,45.40
2023-05-17T11:49:35.130Z,50.70
2023-05-17T11:52:35.718Z,44.90
2023-05-17T11:55:41.217Z,45.20
2023-05-17T11:58:39.985Z,44.70
2023-05-17T12:01:48.440Z,45.90
2023-05-17T12:04:47.416Z,45.30
2023-05-17T12:07:45.728Z,44.80
2023-05-17T12:10:49.780Z,45.70
2023-05-17T12:13:49.692Z,44.50
2023-05-17T12:16:53.210Z,44.50
2023-05-17T12:19:54.965Z,49.00
2023-05-17T12:22:57.176Z,45.10
2023-05-17T12:26:12.597Z,44.50
2023-05-17T12:29:12.088Z,44.90
2023-05-17T12:32:11.841Z,43.80
2023-05-17T12:35:11.952Z,48.00
2023-05-17T12:38:12.015Z,46.20
2023-05-17T12:41:12.934Z,43.50
2023-05-17T12:44:16.004Z,46.50
2023-05-17T12:47:14.587Z,45.00
2023-05-17T12:50:13.388Z,45.10
2023-05-17T12:53:11.375Z,44.90
2023-05-17T12:56:10.335Z,45.80
2023-05-17T12:59:19.515Z,44.70
2023-05-17T13:02:18.282Z,44.80
2023-05-17T13:05:22.224Z,45.00
2023-05-17T13:08:21.682Z,45.30
2023-05-17T13:11:19.852Z,44.90
2023-05-17T13:14:38.584Z,44.60
2023-05-17T13:17:41.137Z,45.00
2023-05-17T13:20:39.240Z,45.20
2023-05-17T13:23:44.736Z,45.10
2023-05-17T13:26:42.811Z,45.80
2023-05-17T13:29:42.926Z,46.30
2023-05-17T13:32:42.091Z,46.00
2023-05-17T13:35:41.783Z,47.50
2023-05-17T14:00:17.035Z,55.00
2023-05-17T14:03:16.295Z,56.40
2023-05-17T14:06:14.548Z,56.70
2023-05-17T14:09:12.525Z,56.80
2023-05-17T14:12:10.744Z,54.40
2023-05-17T14:15:09.650Z,54.70
2023-05-17T14:18:10.207Z,56.70
2023-05-17T14:21:09.437Z,57.80
2023-05-17T14:24:07.768Z,58.70
2023-05-17T14:27:06.024Z,59.30
2023-05-17T14:33:30.613Z,59.50
2023-05-17T14:36:28.925Z,60.30
2023-05-17T14:39:27.113Z,61.30
2023-05-17T14:42:25.129Z,61.20
2023-05-17T14:45:23.301Z,61.60
2023-05-17T14:48:21.605Z,61.10
2023-05-17T14:51:20.581Z,61.00
2023-05-17T14:54:19.055Z,60.70
2023-05-17T14:57:17.386Z,60.70
2023-05-17T15:00:15.609Z,60.80
2023-05-17T15:03:13.964Z,60.90
2023-05-17T15:06:12.452Z,61.40
2023-05-17T15:09:13.508Z,62.70
2023-05-17T15:12:14.127Z,62.90
2023-05-17T15:15:13.278Z,63.40
2023-05-17T15:18:11.787Z,63.40
2023-05-17T15:21:11.280Z,63.60
2023-05-17T15:24:11.724Z,64.80
2023-05-17T15:27:13.430Z,65.60
2023-05-17T15:30:13.436Z,66.90
2023-05-17T15:33:12.072Z,67.00
2023-05-17T15:36:15.608Z,67.10
2023-05-17T15:39:13.868Z,67.30
2023-05-17T15:42:11.832Z,67.50
2023-05-17T15:45:10.735Z,67.50
2023-05-17T15:48:09.312Z,68.00
2023-05-17T15:51:07.791Z,68.10
2023-05-17T15:54:05.926Z,68.50
2023-05-17T15:57:04.117Z,69.60
2023-05-17T16:00:03.132Z,68.80
2023-05-17T16:03:01.443Z,69.30
2023-05-17T16:05:59.745Z,69.70
2023-05-17T16:08:57.859Z,70.10
2023-05-17T16:11:55.821Z,69.80
2023-05-17T16:14:53.897Z,70.40
2023-05-17T16:17:51.995Z,70.40
2023-05-17T16:21:04.453Z,70.80
2023-05-17T16:24:04.699Z,71.40
2023-05-17T16:27:05.164Z,71.10
2023-05-17T16:30:04.578Z,72.20
2023-05-17T16:33:04.115Z,72.60
2023-05-17T16:36:05.302Z,73.20
2023-05-17T16:39:04.140Z,73.60
2023-05-17T16:42:03.498Z,73.80
2023-05-17T16:45:01.906Z,73.60
2023-05-17T16:47:59.979Z,73.90
2023-05-17T16:51:00.027Z,74.10
2023-05-17T16:53:57.980Z,74.20
2023-05-17T16:56:56.558Z,73.70
2023-05-17T16:59:55.780Z,74.40
2023-05-17T17:02:54.021Z,75.20
2023-05-17T17:05:52.240Z,75.60
2023-05-17T17:08:50.327Z,75.10
2023-05-17T17:11:48.334Z,75.70
2023-05-17T17:14:46.659Z,76.10
2023-05-17T17:17:46.184Z,76.30
2023-05-17T17:20:45.206Z,76.50
2023-05-17T17:23:44.960Z,77.00
2023-05-17T17:26:43.096Z,76.60
2023-05-17T17:29:41.039Z,77.60
2023-05-17T17:32:39.166Z,77.20
2023-05-17T17:35:37.422Z,76.90
2023-05-17T17:38:35.561Z,76.70
2023-05-17T17:41:33.812Z,76.50
2023-05-17T17:44:32.165Z,76.20
2023-05-17T17:47:30.192Z,75.80
2023-05-17T17:50:28.581Z,76.00
2023-05-17T17:53:26.879Z,75.70
2023-05-17T17:56:26.482Z,76.10
2023-05-17T17:59:24.515Z,75.90
2023-05-17T18:02:22.573Z,75.70
2023-05-17T18:05:20.935Z,75.70
2023-05-17T18:08:18.982Z,75.30
2023-05-17T18:11:18.009Z,75.50
2023-05-17T18:14:16.166Z,76.30
2023-05-17T18:17:14.096Z,76.80
2023-05-17T18:20:12.344Z,77.00
2023-05-17T18:23:10.294Z,77.70
2023-05-17T18:26:08.576Z,77.70
2023-05-17T18:29:06.666Z,77.80
2023-05-17T18:32:05.371Z,78.00
2023-05-17T18:35:04.089Z,77.80
2023-05-17T18:38:02.434Z,78.10
2023-05-17T18:41:00.578Z,78.30
2023-05-17T18:44:03.554Z,79.20
2023-05-17T18:47:01.450Z,79.10
2023-05-17T18:50:00.308Z,79.80
2023-05-17T18:53:00.428Z,80.10
2023-05-17T18:56:03.164Z,80.20
2023-05-17T18:59:01.708Z,80.30
2023-05-17T19:02:01.655Z,80.40
2023-05-17T19:04:59.600Z,80.70
2023-05-17T19:07:57.886Z,81.00
2023-05-17T19:10:56.272Z,80.80
2023-05-17T19:13:54.380Z,80.80
2023-05-17T19:16:52.583Z,80.90
2023-05-17T19:19:50.689Z,78.20
2023-05-17T19:22:48.603Z,78.40
2023-05-17T19:25:46.838Z,77.70
2023-05-17T19:28:45.229Z,76.10
2023-05-17T19:31:43.382Z,75.90
2023-05-17T19:34:41.566Z,77.00
2023-05-17T19:37:39.727Z,78.20
2023-05-17T19:40:38.854Z,79.30
2023-05-17T19:43:37.625Z,79.80
2023-05-17T19:46:35.590Z,80.10
2023-05-17T19:49:34.205Z,80.70
2023-05-17T19:52:32.248Z,80.30
2023-05-17T19:55:31.472Z,79.90
2023-05-17T19:58:29.838Z,79.60
2023-05-17T20:01:28.093Z,79.50
2023-05-17T20:04:26.217Z,79.50
2023-05-17T20:07:26.491Z,80.00
2023-05-17T20:10:25.478Z,78.90
2023-05-17T20:13:29.079Z,78.70
2023-05-17T20:16:29.111Z,77.80
2023-05-17T20:19:27.306Z,79.50
2023-05-17T20:22:25.387Z,79.50
2023-05-17T20:25:23.416Z,79.90
2023-05-17T20:28:21.353Z,80.00
2023-05-17T20:31:19.738Z,79.90
2023-05-17T20:34:17.684Z,80.00
2023-05-17T20:37:15.835Z,80.40
2023-05-17T20:40:13.828Z,80.40
2023-05-17T20:43:12.032Z,76.50
2023-05-17T20:46:10.329Z,78.70
2023-05-17T20:49:10.354Z,80.00
2023-05-17T20:52:08.324Z,79.80
2023-05-17T20:55:07.236Z,78.30
2023-05-17T20:58:05.046Z,79.40
2023-05-17T21:01:03.391Z,80.00
2023-05-17T21:04:02.505Z,80.40
2023-05-17T21:07:00.777Z,80.10
2023-05-17T21:09:58.654Z,79.20
2023-05-17T21:12:56.850Z,78.80
2023-05-17T21:15:56.114Z,78.20
2023-05-17T21:18:54.487Z,79.30
2023-05-17T21:21:52.333Z,79.80
2023-05-17T21:24:52.900Z,79.50
2023-05-17T21:27:51.832Z,78.90
2023-05-17T21:30:49.818Z,79.50
2023-05-17T21:33:47.707Z,79.30
2023-05-17T21:36:45.725Z,79.80
2023-05-17T21:39:43.599Z,79.10
2023-05-17T21:42:42.320Z,79.30
2023-05-17T21:45:42.290Z,78.70
2023-05-17T21:48:40.280Z,78.80
2023-05-17T21:51:38.225Z,78.00
2023-05-17T21:54:36.438Z,78.40
2023-05-17T21:57:36.754Z,79.30
2023-05-17T22:00:34.785Z,80.70
2023-05-17T22:03:32.941Z,79.70
2023-05-17T22:06:31.394Z,79.90
2023-05-17T22:09:29.825Z,81.10
2023-05-17T22:12:28.186Z,81.70
2023-05-17T22:15:26.064Z,82.10
2023-05-17T22:18:24.505Z,81.80
2023-05-17T22:21:23.104Z,81.70
2023-05-17T22:24:21.185Z,82.20
2023-05-17T22:27:19.097Z,81.70
2023-05-17T22:30:17.461Z,81.90
2023-05-17T22:33:15.535Z,81.90
2023-05-17T22:36:18.481Z,82.10
2023-05-17T22:39:16.325Z,82.40
2023-05-17T22:42:14.296Z,81.60
2023-05-17T22:45:15.259Z,81.60
2023-05-17T22:48:15.076Z,81.90
2023-05-17T22:51:13.314Z,82.30
2023-05-17T22:54:11.296Z,81.20
2023-05-17T22:57:10.101Z,81.10
2023-05-17T23:00:10.050Z,81.60
2023-05-17T23:03:07.969Z,81.20
2023-05-17T23:06:06.167Z,81.60
2023-05-17T23:09:04.216Z,81.10
2023-05-17T23:12:06.164Z,81.20
2023-05-17T23:15:05.415Z,81.00
2023-05-17T23:18:03.901Z,81.30
2023-05-17T23:21:01.749Z,81.40
2023-05-17T23:24:00.782Z,81.60
2023-05-17T23:26:59.328Z,82.00
2023-05-17T23:29:57.908Z,82.50
2023-05-17T23:32:55.915Z,83.10
2023-05-17T23:35:56.196Z,84.20
2023-05-17T23:38:54.016Z,84.00
2023-05-17T23:41:54.849Z,84.20
2023-05-17T23:44:53.361Z,84.60
2023-05-17T23:47:51.486Z,84.60
2023-05-17T23:50:49.329Z,84.50
2023-05-17T23:53:49.378Z,84.70
2023-05-17T23:56:47.240Z,84.90
2023-05-17T23:59:45.422Z,85.00
